This is the latest recevied weather packets stored in our database for station/object SQ5BUJ-13. If no packets are shown the sender has not sent any weather packets the latest 10 day(s).
| Time | Temp. | Humidity | Pressure | Rain* | Wind** | Luminosity | Snow |
|---|---|---|---|---|---|---|---|
| 1777494363 | 5° C | 51% | 1030 hPa | - | - | - | - |
| 1777491928 | 6.11° C | 48% | 1029.8 hPa | - | - | - | - |
| 1777489568 | 5° C | 46% | 1029.4 hPa | - | - | - | - |
| 1777487273 | 5° C | 46% | 1029.4 hPa | - | - | - | - |
| 1777484917 | 7.22° C | 41% | 1029.1 hPa | - | - | - | - |
| 1777482493 | 7.78° C | 38% | 1028.7 hPa | - | - | - | - |
| 1777480085 | 7.78° C | 38% | 1028.7 hPa | - | - | - | - |
| 1777477673 | 7.78° C | 41% | 1028.9 hPa | - | - | - | - |
| 1777475387 | 7.22° C | 41% | 1028.8 hPa | - | - | - | - |
| 1777472813 | 7.22° C | 41% | 1028.8 hPa | - | - | - | - |
| 1777470453 | 7.78° C | 41% | 1028.7 hPa | - | - | - | - |
| 1777465563 | 6.67° C | 43% | 1028.9 hPa | - | - | - | - |
| 1777463298 | 6.11° C | 46% | 1028.9 hPa | - | - | - | - |
| 1777460878 | 5.56° C | 49% | 1028.8 hPa | - | - | - | - |
| 1777457558 | 7.22° C | 46% | 1028.5 hPa | - | - | - | - |
| 1777454988 | 7.22° C | 46% | 1028.5 hPa | - | - | - | - |
| 1777452763 | 5° C | 44% | 1028.3 hPa | - | - | - | - |
| 1777450258 | 4.44° C | 51% | 1028.1 hPa | - | - | - | - |
| 1777447773 | 4.44° C | 51% | 1028.1 hPa | - | - | - | - |
| 1777445337 | 4.44° C | 56% | 1027.8 hPa | - | - | - | - |
| 1777442943 | 2.22° C | 63% | 1027.6 hPa | - | - | - | - |
| 1777441258 | 2.22° C | 63% | 1027.6 hPa | - | - | - | - |
| 1777438627 | 0° C | 68% | 1027.3 hPa | - | - | - | - |
| 1777436093 | 0° C | 68% | 1027.3 hPa | - | - | - | - |
| 1777433498 | -1.11° C | 68% | 1027 hPa | - | - | - | - |
* Rain since midnight (hover to see other rain measurements)
** Current wind speed in m/s (hover to see current wind gust speed)